Time;durP1;ratioP1;P1;durP2;ratioP2;P2;SDS_P1;SDS_P2;PMS_P1;PMS_P2;Temp;Humidity;BMP_temperature;BMP_pressure;BME280_temperature;BME280_humidity;BME280_pressure;Samples;Min_cycle;Max_cycle;Signal;HPM_P1;HPM_P2
2021/08/28 00:02:46;;;;;;;16.95;6.32;;;;;;;16.32;67.50;102022.06;10539311;28;20089;-77
2021/08/28 00:07:47;;;;;;;23.58;5.45;;;;;;;16.82;68.01;102101.84;10540551;28;20132;-79
2021/08/28 00:12:48;;;;;;;9.60;5.43;;;;;;;16.79;68.06;102124.16;10538516;28;20032;-77
2021/08/28 00:17:49;;;;;;;15.75;6.18;;;;;;;16.82;67.39;102088.19;10536609;28;20044;-78
2021/08/28 00:22:54;;;;;;;10.55;5.25;;;;;;;16.85;68.13;102087.75;10536527;28;20119;-77
2021/08/28 00:27:54;;;;;;;16.63;5.18;;;;;;;16.89;68.56;102091.75;10535786;28;20036;-78
2021/08/28 00:32:58;;;;;;;14.88;5.18;;;;;;;16.98;69.34;102089.66;10533824;28;20076;-78
2021/08/28 00:37:58;;;;;;;19.17;5.70;;;;;;;17.12;68.68;102095.94;10534392;28;20111;-77
2021/08/28 00:42:59;;;;;;;18.00;5.55;;;;;;;17.13;69.03;102090.28;10536497;28;20036;-77
2021/08/28 00:48:07;;;;;;;11.93;5.47;;;;;;;16.77;68.64;102022.31;10534875;28;20035;-78
2021/08/28 00:53:08;;;;;;;9.70;4.55;;;;;;;17.26;68.11;102086.69;10517743;28;20527;-78
2021/08/28 00:58:09;;;;;;;6.68;5.55;;;;;;;17.00;68.02;102048.38;10534364;28;20032;-77
2021/08/28 01:03:12;;;;;;;13.43;5.20;;;;;;;17.20;68.75;102091.13;10533340;28;20039;-78
2021/08/28 01:08:30;;;;;;;20.10;5.95;;;;;;;17.20;68.06;102101.22;10517551;28;20047;-77
2021/08/28 01:13:32;;;;;;;9.80;4.80;;;;;;;17.23;68.26;102092.59;10534538;28;20032;-77
2021/08/28 01:18:33;;;;;;;10.43;5.35;;;;;;;17.06;67.78;102066.69;10533629;28;20032;-78
2021/08/28 01:23:34;;;;;;;18.02;5.75;;;;;;;17.23;68.11;102098.06;10538198;28;20032;-78
2021/08/28 01:28:42;;;;;;;9.73;5.75;;;;;;;17.25;68.01;102090.47;10539852;28;20102;-77
2021/08/28 01:33:42;;;;;;;12.00;5.50;;;;;;;16.74;67.90;102007.13;10539624;28;20135;-77
2021/08/28 01:38:43;;;;;;;18.50;5.88;;;;;;;17.20;67.95;102063.75;10522283;28;20032;-78
2021/08/28 01:43:44;;;;;;;21.00;5.60;;;;;;;17.16;67.82;102054.25;10538634;28;20042;-78
2021/08/28 01:48:46;;;;;;;15.25;6.07;;;;;;;15.89;67.33;101852.16;10538273;28;20092;-78
2021/08/28 01:53:46;;;;;;;13.20;6.68;;;;;;;17.28;67.66;102100.97;10539418;28;20123;-78
2021/08/28 01:58:46;;;;;;;13.98;5.45;;;;;;;17.26;68.45;102086.69;10539197;28;20457;-78
2021/08/28 02:03:47;;;;;;;4.95;4.07;;;;;;;17.29;68.51;102088.13;10538690;28;20028;-78
2021/08/28 02:08:53;;;;;;;9.10;4.68;;;;;;;17.04;68.46;102041.44;10521168;28;20067;-78
2021/08/28 02:13:57;;;;;;;10.57;4.50;;;;;;;17.42;68.56;102067.06;10521412;28;20442;-78
2021/08/28 02:19:22;;;;;;;11.60;5.60;;;;;;;17.71;68.03;102089.53;10537800;28;20487;-78
2021/08/28 02:24:26;;;;;;;14.35;6.15;;;;;;;17.35;68.62;102016.09;10533306;28;20497;-78
2021/08/28 02:29:50;;;;;;;18.13;5.38;;;;;;;17.95;67.40;102098.09;10521508;28;20105;-78
2021/08/28 02:34:50;;;;;;;10.93;3.92;;;;;;;17.15;68.17;101988.78;10537541;28;20043;-77
2021/08/28 02:39:51;;;;;;;12.13;4.57;;;;;;;17.57;67.68;102087.88;10520467;28;20498;-78
2021/08/28 02:44:54;;;;;;;11.88;6.80;;;;;;;16.61;69.97;102009.03;10521019;28;20027;-79
2021/08/28 02:49:55;;;;;;;17.02;6.22;;;;;;;17.46;70.01;102080.31;10538626;28;20042;-78
2021/08/28 02:54:56;;;;;;;20.85;6.55;;;;;;;17.06;70.21;102039.31;10537414;28;20024;-78
2021/08/28 02:59:57;;;;;;;13.88;4.60;;;;;;;17.37;70.36;102096.13;10526631;28;20036;-78
2021/08/28 03:04:57;;;;;;;4.47;3.90;;;;;;;17.34;69.89;102078.22;10543274;28;20107;-78
2021/08/28 03:09:58;;;;;;;8.73;4.32;;;;;;;17.15;70.58;102079.94;10544273;28;20119;-77
2021/08/28 03:14:58;;;;;;;4.55;3.45;;;;;;;17.38;69.70;102074.00;10526962;28;20061;-78
2021/08/28 03:19:59;;;;;;;8.18;3.92;;;;;;;17.25;69.80;102065.81;10527163;28;20036;-78
2021/08/28 03:24:59;;;;;;;10.05;4.57;;;;;;;16.64;69.70;101964.84;10543637;28;20107;-78
2021/08/28 03:30:00;;;;;;;7.30;3.80;;;;;;;17.27;70.38;102073.84;10543533;28;20036;-78
2021/08/28 03:35:00;;;;;;;10.18;3.90;;;;;;;17.29;69.96;102074.44;10543875;28;20052;-78
2021/08/28 03:40:01;;;;;;;5.43;3.97;;;;;;;16.55;69.89;101974.31;10542973;28;20063;-78
2021/08/28 03:45:04;;;;;;;8.43;4.25;;;;;;;16.85;69.47;102013.91;10542883;28;20036;-78
2021/08/28 03:50:05;;;;;;;10.18;4.47;;;;;;;17.25;69.03;102084.97;10542629;28;20032;-78
2021/08/28 03:55:05;;;;;;;10.93;5.57;;;;;;;17.17;69.50;102083.31;10543659;28;20028;-78
2021/08/28 04:00:06;;;;;;;16.15;4.00;;;;;;;17.19;69.80;102089.41;10543484;28;20169;-78
2021/08/28 04:05:07;;;;;;;10.23;5.57;;;;;;;17.24;69.83;102086.06;10541753;28;20066;-78
2021/08/28 04:10:08;;;;;;;13.80;4.50;;;;;;;17.13;70.52;102051.09;10542783;28;20093;-78
2021/08/28 04:15:09;;;;;;;13.13;5.50;;;;;;;16.92;70.65;102014.72;10542006;28;20028;-78
2021/08/28 04:20:10;;;;;;;15.57;5.85;;;;;;;17.40;70.20;102080.13;10524551;28;20032;-78
2021/08/28 04:25:10;;;;;;;11.73;4.57;;;;;;;17.42;70.00;102091.72;10542115;28;20051;-78
2021/08/28 04:30:11;;;;;;;11.32;5.55;;;;;;;17.35;70.79;102076.31;10542390;28;20048;-78
2021/08/28 04:35:12;;;;;;;9.95;5.90;;;;;;;17.43;70.50;102098.84;10541547;28;20052;-77
2021/08/28 04:40:12;;;;;;;8.65;5.38;;;;;;;17.58;70.50;102081.31;10540632;28;20407;-78
2021/08/28 04:45:13;;;;;;;11.90;6.13;;;;;;;15.43;70.31;101758.22;10540388;28;20034;-78
2021/08/28 04:50:13;;;;;;;10.38;6.15;;;;;;;17.58;70.40;102089.53;10523253;28;20123;-78
2021/08/28 04:55:14;;;;;;;17.13;6.35;;;;;;;17.59;69.95;102096.72;10541461;28;20038;-78
2021/08/28 05:00:14;;;;;;;12.25;5.05;;;;;;;17.55;70.01;102096.31;10541760;28;20038;-78
2021/08/28 05:05:15;;;;;;;7.68;5.07;;;;;;;17.54;69.75;102105.56;10540011;28;20119;-78
2021/08/28 05:10:15;;;;;;;10.40;5.68;;;;;;;17.30;69.99;102087.94;10540679;28;20040;-77
2021/08/28 05:15:16;;;;;;;9.95;4.68;;;;;;;17.53;70.29;102111.28;10539290;28;20114;-78
2021/08/28 05:20:16;;;;;;;9.68;5.90;;;;;;;17.64;70.22;102118.81;10540319;28;20036;-78
2021/08/28 05:25:17;;;;;;;16.25;5.82;;;;;;;17.02;70.30;101999.75;10541348;28;20075;-78
2021/08/28 05:30:17;;;;;;;17.13;5.25;;;;;;;17.74;70.08;102118.34;10539121;28;20512;-78
2021/08/28 05:35:18;;;;;;;6.25;4.40;;;;;;;17.67;70.31;102121.97;10554950;28;20505;-78
2021/08/28 05:40:20;;;;;;;16.83;5.35;;;;;;;17.48;71.30;102122.00;10538825;28;20071;-78
2021/08/28 05:45:20;;;;;;;15.48;5.07;;;;;;;17.62;70.78;102115.47;10539773;28;20070;-79
2021/08/28 05:50:21;;;;;;;6.97;3.95;;;;;;;17.81;70.21;102119.22;10539242;28;20056;-78
2021/08/28 05:55:21;;;;;;;6.70;3.97;;;;;;;18.64;69.64;102124.72;10539485;28;20039;-79
2021/08/28 06:00:22;;;;;;;5.95;3.65;;;;;;;18.70;68.46;102136.72;10539401;28;20089;-79
2021/08/28 06:05:22;;;;;;;9.65;3.83;;;;;;;18.48;68.52;102131.56;10539014;28;20484;-79
2021/08/28 06:10:22;;;;;;;7.75;4.55;;;;;;;18.36;68.49;102133.31;10539431;28;20119;-78
2021/08/28 06:15:23;;;;;;;5.32;3.60;;;;;;;18.13;68.51;102106.44;10539132;28;20443;-77
2021/08/28 06:20:24;;;;;;;15.35;5.10;;;;;;;18.23;69.74;102147.94;10536570;28;20066;-78
2021/08/28 06:25:25;;;;;;;4.85;2.92;;;;;;;18.35;70.30;102135.22;10534755;28;20036;-78
2021/08/28 06:30:26;;;;;;;5.50;3.08;;;;;;;18.69;70.16;102144.09;10535367;28;20413;-77
2021/08/28 06:35:26;;;;;;;9.00;4.32;;;;;;;19.07;68.85;102143.19;10540421;28;20071;-78
2021/08/28 06:40:27;;;;;;;10.45;3.58;;;;;;;19.48;68.27;102117.06;10543343;28;20341;-78
2021/08/28 06:45:30;;;;;;;10.02;3.83;;;;;;;20.18;67.09;102139.53;10542218;28;20088;-78
2021/08/28 06:50:31;;;;;;;7.68;4.05;;;;;;;20.60;66.31;102139.59;10539882;28;20067;-78
2021/08/28 06:55:31;;;;;;;15.02;4.30;;;;;;;21.00;65.65;102139.00;10541033;28;20374;-78
2021/08/28 07:00:32;;;;;;;7.25;4.53;;;;;;;21.76;65.38;102133.59;10541691;28;20040;-78
2021/08/28 07:05:33;;;;;;;4.45;3.17;;;;;;;21.93;64.80;102089.59;10539156;28;20052;-79
2021/08/28 07:10:33;;;;;;;13.68;4.05;;;;;;;21.50;65.00;102135.78;10460244;28;20183;-80
2021/08/28 07:15:34;;;;;;;5.80;3.95;;;;;;;20.89;64.54;102024.16;10497107;28;20127;-79
2021/08/28 07:20:36;;;;;;;9.48;3.88;;;;;;;21.27;64.16;102144.03;10494584;28;20036;-76
2021/08/28 07:25:37;;;;;;;6.22;4.60;;;;;;;21.30;63.69;102116.84;10494445;28;20456;-76
2021/08/28 07:30:38;;;;;;;7.57;3.42;;;;;;;;;;10493113;28;20482;-77
2021/08/28 07:35:42;;;;;;;5.25;3.25;;;;;;;21.25;64.67;102143.44;10491582;28;20117;-78
2021/08/28 07:40:42;;;;;;;8.32;4.43;;;;;;;21.04;63.81;102142.09;10495436;28;20032;-78
2021/08/28 07:45:43;;;;;;;6.28;3.92;;;;;;;20.95;64.80;102138.84;10476958;28;20423;-80
2021/08/28 07:50:43;;;;;;;6.75;3.70;;;;;;;21.23;63.53;102164.88;10493201;28;20115;-81
2021/08/28 07:55:44;;;;;;;4.55;3.85;;;;;;;21.27;63.49;102144.88;10493446;28;20036;-81
2021/08/28 08:00:48;;;;;;;8.85;3.08;;;;;;;21.39;65.63;102086.22;10495500;28;20532;-81
2021/08/28 08:05:48;;;;;;;5.38;4.05;;;;;;;21.78;61.68;102051.50;10476665;28;20372;-81
2021/08/28 08:10:49;;;;;;;6.45;4.25;;;;;;;22.80;60.54;102160.25;10492908;28;20213;-82
2021/08/28 08:15:49;;;;;;;11.10;3.88;;;;;;;22.56;62.09;102165.06;10475985;28;20037;-82
2021/08/28 08:20:55;;;;;;;6.55;2.88;;;;;;;22.62;60.57;102136.47;10509825;28;20180;-82
2021/08/28 08:25:56;;;;;;;8.85;3.95;;;;;;;23.23;59.00;102167.94;10493649;28;20109;-82
2021/08/28 08:30:57;;;;;;;12.40;4.65;;;;;;;23.76;59.83;102157.41;10493297;28;20036;-82
2021/08/28 08:35:58;;;;;;;5.20;3.40;;;;;;;24.55;57.64;102137.66;10492012;28;20052;-81
2021/08/28 08:40:59;;;;;;;14.38;4.43;;;;;;;25.42;57.96;102166.94;10492294;28;20123;-81
2021/08/28 08:46:00;;;;;;;6.20;3.55;;;;;;;25.80;57.95;102122.53;10490374;28;20135;-81
2021/08/28 08:51:10;;;;;;;5.07;3.42;;;;;;;25.67;60.72;102169.06;10476144;28;20035;-82
2021/08/28 08:56:17;;;;;;;8.20;2.45;;;;;;;25.00;55.85;102122.53;10476236;28;20104;-81
2021/08/28 09:01:30;;;;;;;2.60;2.40;;;;;;;23.96;57.31;102170.69;10494001;28;20048;-82
2021/08/28 09:06:31;;;;;;;9.23;2.67;;;;;;;23.84;54.75;102113.56;10458810;28;20066;-81
2021/08/28 09:11:32;;;;;;;6.95;4.13;;;;;;;25.08;52.02;102169.19;10474646;28;20017;-78
2021/08/28 09:16:33;;;;;;;4.47;4.07;;;;;;;26.49;50.62;102166.69;10490398;28;20506;-77
2021/08/28 09:21:34;;;;;;;4.88;2.83;;;;;;;27.15;48.48;102154.00;10535100;28;20032;-79
2021/08/28 09:26:45;;;;;;;2.92;2.47;;;;;;;28.03;49.61;102173.84;10532721;28;20031;-78
2021/08/28 09:31:49;;;;;;;10.70;3.20;;;;;;;27.82;45.14;102175.03;10532679;28;20450;-79
2021/08/28 09:37:05;;;;;;;3.47;2.65;;;;;;;27.92;48.57;102177.81;10532274;28;20051;-79
2021/08/28 09:42:18;;;;;;;3.85;3.50;;;;;;;27.48;45.46;102096.94;10532589;28;20354;-80
2021/08/28 09:47:29;;;;;;;7.75;3.60;;;;;;;29.12;48.20;102172.09;10518148;28;20110;-79
2021/08/28 09:52:30;;;;;;;6.28;3.90;;;;;;;27.83;43.35;102189.81;10534553;28;20052;-80
2021/08/28 09:57:31;;;;;;;3.17;2.88;;;;;;;27.07;45.71;102128.38;10533656;28;20114;-79
2021/08/28 10:02:32;;;;;;;6.28;3.15;;;;;;;29.23;44.27;102179.28;10536224;28;20314;-78
2021/08/28 10:07:36;;;;;;;3.65;3.35;;;;;;;28.98;44.66;102175.53;10541110;28;20036;-80
2021/08/28 10:12:39;;;;;;;7.25;2.85;;;;;;;26.94;46.12;102101.16;10528730;28;20408;-80
2021/08/28 10:17:41;;;;;;;5.82;3.03;;;;;;;26.90;47.90;102141.75;10547423;28;20328;-81
2021/08/28 10:22:42;;;;;;;4.70;4.03;;;;;;;26.84;45.54;102179.00;10528831;28;20153;-80
2021/08/28 10:27:43;;;;;;;13.48;4.03;;;;;;;28.21;42.70;102108.31;10544217;28;20039;-79
2021/08/28 10:32:47;;;;;;;5.18;3.17;;;;;;;30.15;47.01;102160.69;10546374;28;20123;-80
2021/08/28 10:37:48;;;;;;;13.25;3.47;;;;;;;29.29;45.86;102175.31;10545397;28;20039;-80
2021/08/28 10:42:53;;;;;;;3.78;2.92;;;;;;;26.84;45.97;102145.63;10543560;28;20059;-81
2021/08/28 10:48:02;;;;;;;7.00;3.08;;;;;;;27.72;51.23;102180.59;10544771;28;20055;-80
2021/08/28 10:53:06;;;;;;;2.97;2.58;;;;;;;28.86;44.21;102180.66;10543116;28;20046;-80
2021/08/28 10:58:14;;;;;;;5.22;2.80;;;;;;;29.38;43.43;102181.91;10523593;28;20035;-80
2021/08/28 11:03:35;;;;;;;4.10;3.13;;;;;;;28.50;45.05;102180.91;10540960;28;20032;-81
2021/08/28 11:08:50;;;;;;;2.80;2.60;;;;;;;29.71;48.50;102171.00;10525924;28;20112;-80
2021/08/28 11:13:55;;;;;;;3.13;2.55;;;;;;;30.43;44.27;102178.50;10543097;28;20124;-80
2021/08/28 11:18:56;;;;;;;5.30;3.03;;;;;;;29.28;42.84;102156.06;10539482;28;20454;-81
2021/08/28 11:24:00;;;;;;;2.40;2.15;;;;;;;27.84;44.38;102175.59;10527099;28;20031;-81
2021/08/28 11:29:25;;;;;;;3.33;3.13;;;;;;;27.50;44.34;102064.06;10523957;28;20054;-81
2021/08/28 11:34:54;;;;;;;;;;;;;;;;;;;;;
2021/08/28 11:40:27;;;;;;;6.15;2.00;;;;;;;27.75;48.95;102227.34;10521902;28;20497;-83
2021/08/28 11:45:38;;;;;;;3.40;2.67;;;;;;;25.73;42.88;102125.53;10536673;28;20119;-84
2021/08/28 11:50:42;;;;;;;3.50;2.17;;;;;;;26.84;45.23;102184.53;10506206;28;20028;-83
2021/08/28 11:55:48;;;;;;;4.25;2.97;;;;;;;27.45;46.20;101975.09;10521448;28;20027;-83
2021/08/28 12:00:51;;;;;;;8.50;3.15;;;;;;;29.02;45.91;102183.34;10521099;28;20028;-82
2021/08/28 12:05:56;;;;;;;3.45;2.80;;;;;;;26.84;47.25;102040.84;10504731;28;20044;-83
2021/08/28 12:11:03;;;;;;;4.30;2.85;;;;;;;25.60;49.48;101893.03;10521677;28;20044;-83
2021/08/28 12:16:04;;;;;;;11.88;2.58;;;;;;;27.09;44.15;102111.41;10537873;28;20024;-83
2021/08/28 12:21:40;;;;;;;3.45;2.78;;;;;;;25.84;44.19;102080.09;10519706;28;20130;-83
2021/08/28 12:27:27;;;;;;;4.00;2.53;;;;;;;25.63;42.17;101814.81;10521298;28;20399;-83
2021/08/28 12:32:40;;;;;;;4.57;2.40;;;;;;;27.47;44.00;101979.25;10530856;28;20044;-84
2021/08/28 12:37:44;;;;;;;8.10;3.05;;;;;;;27.29;46.70;102196.81;10518193;28;20135;-83
2021/08/28 12:42:47;;;;;;;10.27;3.50;;;;;;;26.36;47.58;102090.25;10517459;28;20032;-83
2021/08/28 12:48:06;;;;;;;8.35;3.58;;;;;;;26.57;48.03;102235.59;10517167;28;20050;-85
2021/08/28 12:53:07;;;;;;;2.63;2.25;;;;;;;24.43;47.08;101821.31;10534020;28;20160;-83
2021/08/28 12:58:09;;;;;;;4.30;3.55;;;;;;;25.93;49.97;102047.13;10534224;28;20076;-81
2021/08/28 13:03:28;;;;;;;9.20;3.08;;;;;;;25.70;48.36;101959.63;10496915;28;20052;-84
2021/08/28 13:08:33;;;;;;;11.80;3.47;;;;;;;28.59;45.98;102183.06;10510167;28;20088;-82
2021/08/28 13:13:33;;;;;;;3.28;2.63;;;;;;;27.42;45.66;102054.38;10515536;28;20020;-85
2021/08/28 13:18:34;;;;;;;2.78;2.50;;;;;;;27.24;45.80;102188.47;10533273;28;20510;-81
2021/08/28 13:23:41;;;;;;;4.70;3.08;;;;;;;26.13;46.57;102140.72;10533295;28;20478;-83
2021/08/28 13:28:45;;;;;;;;;;;;;;;26.28;51.60;102181.59;10532985;28;20430;-83
2021/08/28 13:34:02;;;;;;;4.32;2.92;;;;;;;27.07;47.93;102167.31;10492552;28;19912;-81
2021/08/28 13:39:07;;;;;;;11.15;2.88;;;;;;;28.57;42.91;102177.78;10489819;28;20052;-81
2021/08/28 13:44:11;;;;;;;1.98;1.85;;;;;;;27.65;45.31;102132.75;10473526;28;20036;-83
2021/08/28 13:49:11;;;;;;;3.67;2.80;;;;;;;27.64;46.64;102195.13;10490682;28;20029;-82
2021/08/28 13:54:12;;;;;;;2.92;2.28;;;;;;;27.17;43.81;102194.31;10456392;28;20439;-82
2021/08/28 13:59:13;;;;;;;17.42;2.70;;;;;;;26.27;45.26;102154.94;10487692;28;20055;-83
2021/08/28 14:04:18;;;;;;;9.27;2.90;;;;;;;25.62;47.54;102096.91;10496293;28;20078;-84
2021/08/28 14:09:18;;;;;;;5.13;2.13;;;;;;;25.45;49.01;102166.41;10512570;28;20362;-81
2021/08/28 14:14:19;;;;;;;3.17;2.60;;;;;;;25.78;49.60;102192.13;10527852;28;20169;-82
2021/08/28 14:19:20;;;;;;;6.20;2.80;;;;;;;24.98;48.42;102086.78;10512592;28;20473;-82
2021/08/28 14:24:20;;;;;;;7.07;2.75;;;;;;;25.35;47.31;102201.56;10529636;28;20526;-82
2021/08/28 14:29:21;;;;;;;6.88;2.58;;;;;;;24.80;51.83;102196.06;10530361;28;20028;-83
2021/08/28 14:34:22;;;;;;;8.82;2.28;;;;;;;25.02;48.44;102186.88;10484653;28;20321;-84
2021/08/28 14:39:26;;;;;;;2.42;2.13;;;;;;;24.46;48.09;102097.69;10484358;28;20139;-82
2021/08/28 14:44:30;;;;;;;3.08;2.65;;;;;;;24.37;48.46;102195.00;10486803;28;20077;-83
2021/08/28 14:49:31;;;;;;;9.65;3.33;;;;;;;24.19;52.08;102189.81;10468251;28;20081;-82
2021/08/28 14:54:32;;;;;;;3.97;3.03;;;;;;;23.22;50.11;102019.78;10489291;28;20032;-84
2021/08/28 14:59:32;;;;;;;11.30;4.72;;;;;;;24.49;50.81;102197.66;10459681;28;20041;-82
2021/08/28 15:04:32;;;;;;;10.25;3.22;;;;;;;24.32;52.22;102203.28;10474571;28;20454;-82
2021/08/28 15:09:33;;;;;;;5.25;3.22;;;;;;;24.31;49.23;102209.03;10493705;28;20114;-82
2021/08/28 15:14:36;;;;;;;6.65;2.88;;;;;;;24.24;49.70;102200.94;10493364;28;20035;-82
2021/08/28 15:19:37;;;;;;;3.83;3.42;;;;;;;23.98;50.93;102226.63;10497759;28;20088;-82
2021/08/28 15:24:50;;;;;;;7.32;3.60;;;;;;;23.53;51.44;102163.97;10493332;28;20138;-81
2021/08/28 15:29:51;;;;;;;6.68;3.92;;;;;;;23.18;52.83;102221.19;10496402;28;20116;-81
2021/08/28 15:34:52;;;;;;;6.30;3.03;;;;;;;23.24;52.54;102226.81;10496750;28;20112;-82
2021/08/28 15:39:52;;;;;;;5.35;2.90;;;;;;;22.28;52.67;102128.94;10495633;28;20159;-82
2021/08/28 15:44:55;;;;;;;4.43;3.17;;;;;;;22.99;52.93;102233.56;10478375;28;20168;-81
2021/08/28 15:49:59;;;;;;;4.93;2.53;;;;;;;22.90;53.38;102235.84;10477096;28;20036;-82
2021/08/28 15:55:02;;;;;;;13.02;2.45;;;;;;;22.26;53.43;102158.69;10494034;28;20103;-81
2021/08/28 16:00:06;;;;;;;13.63;4.07;;;;;;;22.68;53.08;102210.84;10494304;28;20135;-81
2021/08/28 16:05:08;;;;;;;8.57;2.80;;;;;;;22.20;54.19;102179.00;10512206;28;20518;-82
2021/08/28 16:10:09;;;;;;;5.53;1.75;;;;;;;22.15;53.18;102230.47;10495468;28;20461;-82
2021/08/28 16:15:10;;;;;;;4.47;2.88;;;;;;;22.18;52.91;102241.88;10496069;28;20036;-81
2021/08/28 16:20:11;;;;;;;5.90;2.22;;;;;;;22.03;56.38;102242.34;10477909;28;20524;-81
2021/08/28 16:25:11;;;;;;;3.15;2.85;;;;;;;22.22;54.54;102243.06;10492085;28;20483;-81
2021/08/28 16:30:12;;;;;;;7.63;3.63;;;;;;;22.17;55.38;102240.19;10476796;28;20060;-81
2021/08/28 16:35:13;;;;;;;5.38;2.92;;;;;;;22.04;54.42;102244.00;10478921;28;20040;-81
2021/08/28 16:40:13;;;;;;;3.92;2.45;;;;;;;21.80;55.24;102242.34;10462917;28;20041;-81
2021/08/28 16:45:14;;;;;;;2.00;1.85;;;;;;;21.69;56.41;102226.63;10496784;28;20032;-81
2021/08/28 16:50:14;;;;;;;13.00;2.42;;;;;;;21.67;56.90;102240.69;10496485;28;20039;-81
2021/08/28 16:55:15;;;;;;;4.82;2.83;;;;;;;21.74;55.38;102240.56;10497106;28;20443;-82
2021/08/28 17:00:15;;;;;;;12.65;2.88;;;;;;;21.45;56.13;102240.41;10498176;28;20482;-81
2021/08/28 17:05:16;;;;;;;5.45;2.13;;;;;;;20.86;56.18;102151.28;10497477;28;20098;-81
2021/08/28 17:10:16;;;;;;;8.30;2.72;;;;;;;21.28;56.76;102234.75;10499157;28;20144;-83
2021/08/28 17:15:17;;;;;;;15.25;2.78;;;;;;;21.57;56.76;102238.53;10498057;28;20108;-81
2021/08/28 17:20:17;;;;;;;4.38;2.25;;;;;;;21.37;58.35;102213.19;10497859;28;20102;-81
2021/08/28 17:25:18;;;;;;;5.82;3.13;;;;;;;21.22;57.89;102243.94;10480562;28;20072;-81
2021/08/28 17:30:18;;;;;;;15.55;2.53;;;;;;;21.02;56.90;102257.16;10497045;28;20037;-81
2021/08/28 17:35:19;;;;;;;3.45;2.35;;;;;;;20.81;57.55;102253.03;10496048;28;20033;-82
2021/08/28 17:40:19;;;;;;;16.00;3.42;;;;;;;20.85;58.56;102257.81;10496920;28;20110;-82
2021/08/28 17:45:21;;;;;;;10.65;2.33;;;;;;;20.56;59.81;102231.13;10493661;28;20054;-81
2021/08/28 17:50:24;;;;;;;4.82;2.45;;;;;;;20.50;59.42;102224.59;10458389;28;20032;-81
2021/08/28 17:55:24;;;;;;;5.35;2.25;;;;;;;20.60;58.52;102263.44;10474673;28;20032;-82
2021/08/28 18:00:26;;;;;;;10.15;2.47;;;;;;;20.37;59.33;102222.03;10476200;28;20064;-82
2021/08/28 18:05:26;;;;;;;6.85;3.15;;;;;;;20.05;59.04;102163.59;10475346;28;20028;-81
2021/08/28 18:10:27;;;;;;;7.35;3.03;;;;;;;20.73;58.70;102289.13;10473413;28;20111;-81
2021/08/28 18:15:30;;;;;;;5.63;2.92;;;;;;;20.54;59.73;102261.63;10454630;28;20047;-81
2021/08/28 18:20:31;;;;;;;9.00;4.32;;;;;;;20.46;59.29;102261.09;10486802;28;20456;-81
2021/08/28 18:25:31;;;;;;;7.82;3.63;;;;;;;20.51;59.26;102264.84;10487293;28;20139;-81
2021/08/28 18:30:32;;;;;;;10.25;5.47;;;;;;;20.33;59.60;102270.34;10495613;28;20124;-81
2021/08/28 18:35:34;;;;;;;10.82;4.35;;;;;;;20.40;59.94;102271.09;10493849;28;20072;-80
2021/08/28 18:40:35;;;;;;;9.52;3.72;;;;;;;20.30;60.17;102271.63;10496834;28;20048;-80
2021/08/28 18:45:36;;;;;;;14.13;4.88;;;;;;;19.90;60.35;102260.19;10494063;28;20032;-81
2021/08/28 18:50:37;;;;;;;9.77;3.67;;;;;;;18.95;60.71;102129.38;10494302;28;20115;-81
2021/08/28 18:55:37;;;;;;;12.70;3.97;;;;;;;18.96;60.61;102174.13;10494801;28;20159;-82
2021/08/28 19:00:38;;;;;;;10.43;4.38;;;;;;;19.05;60.50;102187.38;10476381;28;20577;-80
2021/08/28 19:05:39;;;;;;;5.47;3.58;;;;;;;19.70;60.91;102296.13;10492520;28;20120;-81
2021/08/28 19:10:42;;;;;;;17.58;3.85;;;;;;;19.72;61.92;102302.25;10492301;28;20091;-80
2021/08/28 19:15:43;;;;;;;8.02;4.32;;;;;;;18.82;61.72;102170.63;10495049;28;20029;-81
2021/08/28 19:20:43;;;;;;;4.25;3.33;;;;;;;19.55;61.17;102262.59;10493659;28;20059;-81
2021/08/28 19:25:49;;;;;;;6.68;3.45;;;;;;;19.86;62.77;102317.53;10476335;28;20029;-81
2021/08/28 19:30:52;;;;;;;9.30;3.50;;;;;;;19.74;62.72;102317.44;10491642;28;20093;-81
2021/08/28 19:35:53;;;;;;;2.80;2.60;;;;;;;19.49;61.91;102322.03;10474967;28;20430;-81
2021/08/28 19:40:54;;;;;;;6.20;3.45;;;;;;;19.42;61.81;102352.31;10492397;28;20060;-80
2021/08/28 19:45:54;;;;;;;4.40;3.08;;;;;;;19.32;61.49;102362.94;10491644;28;20527;-81
2021/08/28 19:50:55;;;;;;;5.43;2.92;;;;;;;19.41;61.13;102334.16;10492862;28;20028;-80
2021/08/28 19:55:56;;;;;;;8.35;4.38;;;;;;;19.47;61.73;102326.94;10458841;28;20077;-80
2021/08/28 20:01:03;;;;;;;12.68;4.20;;;;;;;19.00;63.19;102326.34;10491638;28;20459;-80
2021/08/28 20:06:03;;;;;;;8.80;3.83;;;;;;;17.75;63.85;102147.47;10474663;28;20087;-78
2021/08/28 20:11:04;;;;;;;7.97;3.97;;;;;;;18.55;64.31;102316.16;10473252;28;20337;-79
2021/08/28 20:16:07;;;;;;;21.05;3.35;;;;;;;18.37;65.33;102324.22;10491934;28;20521;-78
2021/08/28 20:21:10;;;;;;;10.10;3.58;;;;;;;18.10;64.74;102277.69;10489956;28;20036;-80
2021/08/28 20:26:12;;;;;;;5.55;3.70;;;;;;;17.90;65.61;102293.34;10489431;28;20040;-79
2021/08/28 20:31:15;;;;;;;7.88;3.03;;;;;;;18.35;64.78;102340.91;10489438;28;20161;-80
2021/08/28 20:36:16;;;;;;;11.07;6.22;;;;;;;18.47;64.56;102316.38;10488025;28;20407;-78
2021/08/28 20:41:16;;;;;;;7.28;3.58;;;;;;;18.56;63.78;102311.53;10488302;28;20043;-79
2021/08/28 20:46:17;;;;;;;14.70;3.35;;;;;;;18.33;63.51;102268.97;10471091;28;20402;-79
2021/08/28 20:51:17;;;;;;;9.77;4.18;;;;;;;18.35;64.29;102305.25;10487243;28;20126;-79
2021/08/28 20:56:18;;;;;;;8.23;5.47;;;;;;;18.22;64.39;102309.91;10489637;28;20036;-79
2021/08/28 21:01:19;;;;;;;3.00;2.72;;;;;;;18.03;64.67;102319.88;10488070;28;20171;-79
2021/08/28 21:06:19;;;;;;;14.20;4.32;;;;;;;17.84;64.59;102324.31;10487928;28;20395;-79
2021/08/28 21:11:20;;;;;;;11.38;4.25;;;;;;;17.78;65.36;102315.03;10489218;28;20132;-79
2021/08/28 21:16:21;;;;;;;21.38;7.88;;;;;;;17.21;65.07;102220.59;10491825;28;20440;-79
2021/08/28 21:21:34;;;;;;;8.30;3.88;;;;;;;17.52;65.81;102304.06;10492067;28;20024;-78
2021/08/28 21:26:40;;;;;;;13.23;4.57;;;;;;;16.76;65.11;102181.19;10494815;28;20532;-79
2021/08/28 21:31:40;;;;;;;3.67;3.20;;;;;;;17.01;65.46;102193.22;10493617;28;20036;-80
2021/08/28 21:36:41;;;;;;;5.13;3.70;;;;;;;17.69;65.54;102299.00;10491816;28;20063;-79
2021/08/28 21:41:41;;;;;;;3.88;2.95;;;;;;;17.77;65.90;102310.63;10494344;28;20036;-79
2021/08/28 21:46:42;;;;;;;11.82;5.18;;;;;;;17.57;65.49;102249.47;10475679;28;20210;-79
2021/08/28 21:51:42;;;;;;;5.03;3.33;;;;;;;17.99;65.45;102308.47;10495262;28;20099;-80
2021/08/28 21:56:43;;;;;;;12.00;3.75;;;;;;;18.11;65.12;102303.19;10494942;28;20117;-79
2021/08/28 22:01:44;;;;;;;14.52;4.43;;;;;;;16.25;64.80;102002.06;10495506;28;20500;-80
2021/08/28 22:06:44;;;;;;;13.20;4.60;;;;;;;18.19;65.21;102311.22;10501460;28;20040;-80
2021/08/28 22:11:44;;;;;;;16.73;3.70;;;;;;;18.31;64.59;102315.00;10503602;28;20503;-80
2021/08/28 22:16:45;;;;;;;8.35;3.70;;;;;;;18.33;64.14;102317.50;10505055;28;20060;-79
2021/08/28 22:21:46;;;;;;;4.63;4.15;;;;;;;18.33;63.96;102307.38;10504771;28;20556;-79
2021/08/28 22:26:46;;;;;;;4.88;3.45;;;;;;;18.31;64.43;102306.75;10503407;28;20024;-81
2021/08/28 22:31:46;;;;;;;6.50;3.85;;;;;;;17.99;64.52;102288.44;10501809;28;20038;-80
2021/08/28 22:36:47;;;;;;;23.85;4.97;;;;;;;18.34;64.61;102295.34;10502863;28;20060;-80
2021/08/28 22:41:47;;;;;;;12.18;3.17;;;;;;;18.32;64.59;102299.38;10501626;28;20547;-80
2021/08/28 22:46:48;;;;;;;18.35;4.32;;;;;;;18.27;64.42;102330.16;10500640;28;20035;-80
2021/08/28 22:51:48;;;;;;;12.18;5.20;;;;;;;18.35;64.63;102290.72;10499911;28;20527;-80
2021/08/28 22:56:48;;;;;;;8.23;4.80;;;;;;;18.30;64.76;102288.59;10500820;28;20056;-80
2021/08/28 23:01:49;;;;;;;4.50;3.92;;;;;;;18.28;64.94;102296.22;10499893;28;20047;-80
2021/08/28 23:06:50;;;;;;;10.70;3.67;;;;;;;17.09;64.96;102140.16;10498298;28;20459;-80
2021/08/28 23:11:50;;;;;;;4.10;3.67;;;;;;;17.83;65.30;102226.72;10497215;28;20052;-80